createdAt,value
2018-09-04T00:00:22.304Z,99.90
2018-09-04T00:02:49.862Z,99.90
2018-09-04T00:05:17.388Z,99.90
2018-09-04T00:07:44.929Z,99.90
2018-09-04T00:10:12.531Z,99.90
2018-09-04T00:12:40.090Z,99.90
2018-09-04T00:15:07.902Z,99.90
2018-09-04T00:17:35.605Z,99.90
2018-09-04T00:20:03.236Z,99.90
2018-09-04T00:22:30.773Z,99.90
2018-09-04T00:24:58.256Z,99.90
2018-09-04T00:27:25.821Z,99.90
2018-09-04T00:29:53.454Z,99.90
2018-09-04T00:32:20.944Z,99.90
2018-09-04T00:34:48.493Z,99.90
2018-09-04T00:37:16.076Z,99.90
2018-09-04T00:39:43.567Z,99.90
2018-09-04T00:42:11.094Z,99.90
2018-09-04T00:44:38.647Z,99.90
2018-09-04T00:47:06.203Z,99.90
2018-09-04T00:49:33.717Z,99.90
2018-09-04T00:52:01.315Z,99.90
2018-09-04T00:54:28.787Z,99.90
2018-09-04T00:56:56.269Z,99.90
2018-09-04T00:59:23.837Z,99.90
2018-09-04T01:01:51.336Z,99.90
2018-09-04T01:04:18.908Z,99.90
2018-09-04T01:06:46.483Z,99.90
2018-09-04T01:09:18.836Z,99.90
2018-09-04T01:11:46.357Z,99.90
2018-09-04T01:14:14.065Z,99.90
2018-09-04T01:16:41.609Z,99.90
2018-09-04T01:19:09.109Z,99.90
2018-09-04T01:21:36.673Z,99.90
2018-09-04T01:24:04.164Z,99.90
2018-09-04T01:26:31.768Z,99.90
2018-09-04T01:28:59.630Z,99.90
2018-09-04T01:31:27.118Z,99.90
2018-09-04T01:33:54.655Z,99.90
2018-09-04T01:36:22.158Z,99.90
2018-09-04T01:38:51.037Z,99.90
2018-09-04T01:41:18.617Z,99.90
2018-09-04T01:43:46.121Z,99.90
2018-09-04T01:46:13.620Z,99.90
2018-09-04T01:48:41.201Z,99.90
2018-09-04T01:51:08.709Z,99.90
2018-09-04T01:53:36.208Z,99.90
2018-09-04T01:56:03.769Z,99.90
2018-09-04T01:58:31.315Z,99.90
2018-09-04T02:00:58.863Z,99.90
2018-09-04T02:03:26.367Z,99.90
2018-09-04T02:05:53.875Z,99.90
2018-09-04T02:08:21.377Z,99.90
2018-09-04T02:10:48.961Z,99.90
2018-09-04T02:13:16.466Z,99.90
2018-09-04T02:15:44.071Z,99.90
2018-09-04T02:18:11.827Z,99.90
2018-09-04T02:20:39.305Z,99.90
2018-09-04T02:23:06.875Z,99.90
2018-09-04T02:25:34.371Z,99.90
2018-09-04T02:28:01.902Z,99.90
2018-09-04T02:30:29.415Z,99.90
2018-09-04T02:32:56.981Z,99.90
2018-09-04T02:35:24.448Z,99.90
2018-09-04T02:37:51.939Z,99.90
2018-09-04T02:40:19.447Z,99.90
2018-09-04T02:42:47.089Z,99.90
2018-09-04T02:45:14.573Z,99.90
2018-09-04T02:47:42.108Z,99.90
2018-09-04T02:50:09.587Z,99.90
2018-09-04T02:52:37.103Z,99.90
2018-09-04T02:55:04.679Z,99.90
2018-09-04T02:57:32.179Z,99.90
2018-09-04T02:59:59.664Z,99.90
2018-09-04T03:02:27.181Z,99.90
2018-09-04T03:04:54.692Z,99.90
2018-09-04T03:07:22.210Z,99.90
2018-09-04T03:09:49.705Z,99.90
2018-09-04T03:12:17.270Z,99.90
2018-09-04T03:14:44.765Z,99.90
2018-09-04T03:17:12.310Z,99.90
2018-09-04T03:19:39.782Z,99.90
2018-09-04T03:22:07.304Z,99.90
2018-09-04T03:24:34.826Z,99.90
2018-09-04T03:27:02.290Z,99.90
2018-09-04T03:29:29.786Z,99.90
2018-09-04T03:31:57.513Z,99.90
2018-09-04T03:34:25.008Z,99.90
2018-09-04T03:36:52.542Z,99.90
2018-09-04T03:39:20.126Z,99.90
2018-09-04T03:41:47.594Z,99.90
2018-09-04T03:44:15.178Z,99.90
2018-09-04T03:46:42.682Z,99.90
2018-09-04T03:49:10.151Z,99.90
2018-09-04T03:51:37.631Z,99.90
2018-09-04T03:54:05.468Z,99.90
2018-09-04T03:56:32.968Z,99.90
2018-09-04T03:59:00.482Z,99.90
2018-09-04T04:01:28.015Z,99.90
2018-09-04T04:03:55.520Z,99.90
2018-09-04T04:06:23.100Z,99.90
2018-09-04T04:08:50.600Z,99.90
2018-09-04T04:11:18.108Z,99.90
2018-09-04T04:13:45.580Z,99.90
2018-09-04T04:16:13.199Z,99.90
2018-09-04T04:18:40.694Z,99.90
2018-09-04T04:21:08.168Z,99.90
2018-09-04T04:23:35.698Z,99.90
2018-09-04T04:26:03.427Z,99.90
2018-09-04T04:28:30.941Z,99.90
2018-09-04T04:30:58.444Z,99.90
2018-09-04T04:33:25.930Z,99.90
2018-09-04T04:35:54.684Z,99.90
2018-09-04T04:38:22.246Z,99.90
2018-09-04T04:40:49.737Z,99.90
2018-09-04T04:43:17.258Z,99.90
2018-09-04T04:45:44.786Z,99.90
2018-09-04T04:48:12.322Z,99.90
2018-09-04T04:50:39.839Z,99.90
2018-09-04T04:53:07.360Z,99.90
2018-09-04T04:55:34.887Z,99.90
2018-09-04T04:58:02.491Z,99.90
2018-09-04T05:00:30.157Z,99.90
2018-09-04T05:02:57.714Z,99.90
2018-09-04T05:05:25.295Z,99.90
2018-09-04T05:07:52.845Z,99.90
2018-09-04T05:10:21.696Z,99.90
2018-09-04T05:12:49.246Z,99.90
2018-09-04T05:15:17.061Z,99.90
2018-09-04T05:17:44.572Z,99.90
2018-09-04T05:20:15.054Z,99.90
2018-09-04T05:22:42.676Z,99.90
2018-09-04T05:25:10.214Z,99.90
2018-09-04T05:27:37.715Z,99.90
2018-09-04T05:30:05.390Z,99.90
2018-09-04T05:32:40.547Z,99.90
2018-09-04T05:35:10.182Z,99.90
2018-09-04T05:37:37.684Z,99.90
2018-09-04T05:40:05.551Z,99.90
2018-09-04T05:42:37.815Z,99.90
2018-09-04T05:45:06.504Z,99.90
2018-09-04T05:47:35.668Z,99.90
2018-09-04T05:50:04.366Z,99.90
2018-09-04T05:52:31.877Z,99.90
2018-09-04T05:54:59.391Z,99.90
2018-09-04T05:57:27.037Z,99.90
2018-09-04T05:59:54.700Z,99.90
2018-09-04T06:02:22.369Z,99.90
2018-09-04T06:04:49.920Z,99.90
2018-09-04T06:07:17.534Z,99.90
2018-09-04T06:09:45.120Z,99.90
2018-09-04T06:12:12.722Z,99.90
2018-09-04T06:14:40.215Z,99.90
2018-09-04T06:17:07.719Z,99.90
2018-09-04T06:19:35.455Z,99.90
2018-09-04T06:22:03.150Z,99.90
2018-09-04T06:24:30.870Z,99.90
2018-09-04T06:26:58.609Z,99.90
2018-09-04T06:29:26.547Z,99.90
2018-09-04T06:31:54.217Z,99.90
2018-09-04T06:34:21.795Z,99.90
2018-09-04T06:36:49.420Z,99.90
2018-09-04T06:39:16.913Z,99.90
2018-09-04T06:41:44.610Z,99.90
2018-09-04T06:44:12.184Z,99.90
2018-09-04T06:46:39.741Z,99.90
2018-09-04T06:49:07.230Z,99.90
2018-09-04T06:51:34.772Z,99.90
2018-09-04T06:54:02.319Z,99.90
2018-09-04T06:56:29.921Z,99.90
2018-09-04T06:58:57.456Z,99.90
2018-09-04T07:01:25.035Z,99.90
2018-09-04T07:03:52.585Z,99.90
2018-09-04T07:06:20.117Z,99.90
2018-09-04T07:08:47.631Z,99.90
2018-09-04T07:11:15.225Z,99.90
2018-09-04T07:13:42.747Z,99.90
2018-09-04T07:16:10.241Z,99.90
2018-09-04T07:18:37.759Z,99.90
2018-09-04T07:21:05.285Z,99.90
2018-09-04T07:23:32.841Z,99.90
2018-09-04T07:26:00.374Z,99.90
2018-09-04T07:28:28.013Z,99.90
2018-09-04T07:30:55.632Z,99.90
2018-09-04T07:33:23.181Z,99.90
2018-09-04T07:35:50.694Z,99.90
2018-09-04T07:38:18.175Z,99.90
2018-09-04T07:40:45.745Z,99.90
2018-09-04T07:43:13.345Z,99.90
2018-09-04T07:45:40.953Z,99.90
2018-09-04T07:48:08.791Z,99.90
2018-09-04T07:50:36.305Z,99.90
2018-09-04T07:53:03.908Z,99.90
2018-09-04T07:55:31.411Z,99.90
2018-09-04T07:57:59.035Z,99.90
2018-09-04T08:00:26.747Z,99.90
2018-09-04T08:02:54.273Z,99.90
2018-09-04T08:05:21.787Z,99.90
2018-09-04T08:07:49.351Z,99.90
2018-09-04T08:10:16.969Z,99.90
2018-09-04T08:12:44.577Z,99.90
2018-09-04T08:15:12.181Z,99.90
2018-09-04T08:17:39.669Z,99.90
2018-09-04T08:20:07.319Z,99.90
2018-09-04T08:22:34.827Z,99.90
2018-09-04T08:25:02.343Z,99.90
2018-09-04T08:27:29.883Z,99.90
2018-09-04T08:29:57.365Z,99.90
2018-09-04T08:32:24.939Z,99.90
2018-09-04T08:34:52.463Z,99.90
2018-09-04T08:37:19.937Z,99.90
2018-09-04T08:39:47.613Z,99.90
2018-09-04T08:42:15.207Z,99.90
2018-09-04T08:44:42.783Z,99.90
2018-09-04T08:47:10.333Z,99.90
2018-09-04T08:49:37.903Z,99.90
2018-09-04T08:52:05.449Z,99.90
2018-09-04T08:54:33.014Z,99.90
2018-09-04T08:57:00.723Z,99.90
2018-09-04T08:59:28.574Z,99.90
2018-09-04T09:01:56.071Z,99.90
2018-09-04T09:04:23.608Z,99.90
2018-09-04T09:06:51.183Z,99.90
2018-09-04T09:09:18.918Z,99.90
2018-09-04T09:11:46.425Z,99.90
2018-09-04T09:14:14.070Z,99.90
2018-09-04T09:16:41.570Z,99.90
2018-09-04T09:19:09.084Z,99.90
2018-09-04T09:21:36.597Z,99.90
2018-09-04T09:24:04.132Z,99.90
2018-09-04T09:26:31.667Z,99.90
2018-09-04T09:28:59.210Z,99.90
2018-09-04T09:31:27.172Z,99.90
2018-09-04T09:33:54.684Z,99.90
2018-09-04T09:36:22.276Z,99.90
2018-09-04T09:38:49.789Z,99.90
2018-09-04T09:41:17.305Z,99.90
2018-09-04T09:43:44.792Z,99.90
2018-09-04T09:46:12.330Z,99.90
2018-09-04T09:48:40.345Z,99.90
2018-09-04T09:51:08.831Z,99.90
2018-09-04T09:53:36.515Z,99.90
2018-09-04T09:56:03.912Z,99.90
2018-09-04T09:58:31.426Z,99.90
2018-09-04T10:01:04.505Z,99.90
2018-09-04T10:03:37.771Z,99.90
2018-09-04T10:06:05.297Z,99.90
2018-09-04T10:08:33.040Z,99.90
2018-09-04T10:11:00.597Z,99.90
2018-09-04T10:13:28.126Z,99.90
2018-09-04T10:15:55.745Z,99.90
2018-09-04T10:18:23.232Z,99.90
2018-09-04T10:20:50.762Z,99.90
2018-09-04T10:23:18.358Z,99.90
2018-09-04T10:25:46.108Z,99.90
2018-09-04T10:28:14.022Z,99.90
2018-09-04T10:30:41.552Z,99.90
2018-09-04T10:33:09.197Z,99.90
2018-09-04T10:35:36.781Z,99.90
2018-09-04T10:38:04.322Z,99.90
2018-09-04T10:40:37.526Z,99.90
2018-09-04T10:43:05.058Z,99.90
2018-09-04T10:45:38.773Z,99.90
2018-09-04T10:48:09.761Z,99.90
2018-09-04T10:50:37.329Z,99.90
2018-09-04T10:53:05.274Z,99.90
2018-09-04T10:55:32.846Z,99.90
2018-09-04T10:58:00.381Z,99.90
2018-09-04T11:00:27.910Z,99.90
2018-09-04T11:02:55.466Z,99.90
2018-09-04T11:05:23.063Z,99.90
2018-09-04T11:07:50.599Z,99.90
2018-09-04T11:10:18.159Z,99.90
2018-09-04T11:12:45.793Z,99.90
2018-09-04T11:15:13.452Z,99.90
2018-09-04T11:17:40.966Z,99.90
2018-09-04T11:20:08.670Z,99.90
2018-09-04T11:22:36.229Z,99.90
2018-09-04T11:25:03.861Z,99.90
2018-09-04T11:27:31.698Z,99.90
2018-09-04T11:29:59.230Z,99.90
2018-09-04T11:32:27.767Z,99.90
2018-09-04T11:34:55.351Z,99.90
2018-09-04T11:37:22.856Z,99.90
2018-09-04T11:39:50.541Z,99.90
2018-09-04T11:42:18.064Z,99.90
2018-09-04T11:44:47.135Z,99.90
2018-09-04T11:47:14.741Z,99.90
2018-09-04T11:49:42.680Z,99.90
2018-09-04T11:52:10.217Z,99.90
2018-09-04T11:54:37.978Z,99.90
2018-09-04T11:57:05.561Z,99.90
2018-09-04T11:59:39.670Z,99.90
2018-09-04T12:02:11.183Z,99.90
2018-09-04T12:04:38.705Z,99.90
2018-09-04T12:07:06.231Z,99.90
2018-09-04T12:09:33.833Z,99.60
2018-09-04T12:12:01.336Z,99.30
2018-09-04T12:14:34.685Z,98.60
2018-09-04T12:17:02.273Z,98.80
2018-09-04T12:19:42.171Z,98.40
2018-09-04T12:22:09.744Z,98.10
2018-09-04T12:24:37.269Z,97.90
2018-09-04T12:27:05.016Z,97.80
2018-09-04T12:29:32.533Z,97.80
2018-09-04T12:32:00.046Z,97.70
2018-09-04T12:34:27.783Z,97.40
2018-09-04T12:36:55.272Z,97.30
2018-09-04T12:39:22.795Z,97.90
2018-09-04T12:41:50.336Z,97.70
2018-09-04T12:44:17.912Z,97.60
2018-09-04T12:46:45.417Z,97.20
2018-09-04T12:49:13.004Z,96.90
2018-09-04T12:51:40.566Z,97.00
2018-09-04T12:54:08.097Z,97.30
2018-09-04T12:56:35.654Z,97.40
2018-09-04T12:59:03.307Z,97.60
2018-09-04T13:01:30.877Z,97.70
2018-09-04T13:03:58.426Z,97.10
2018-09-04T13:06:25.997Z,96.30
2018-09-04T13:08:53.688Z,95.80
2018-09-04T13:11:21.226Z,95.50
2018-09-04T13:13:48.942Z,95.10
2018-09-04T13:16:16.727Z,94.40
2018-09-04T13:18:44.299Z,94.00
2018-09-04T13:21:11.855Z,93.50
2018-09-04T13:23:39.374Z,92.80
2018-09-04T13:26:06.934Z,92.80
2018-09-04T13:28:34.829Z,93.00
2018-09-04T13:31:02.388Z,92.50
2018-09-04T13:33:29.924Z,91.60
2018-09-04T13:35:57.466Z,91.10
2018-09-04T13:38:24.992Z,90.30
2018-09-04T13:40:58.314Z,87.90
2018-09-04T13:43:25.816Z,87.90
2018-09-04T13:45:53.344Z,87.10
2018-09-04T13:48:25.406Z,87.10
2018-09-04T13:50:53.035Z,89.70
2018-09-04T13:53:20.601Z,88.30
2018-09-04T13:55:48.119Z,90.00
2018-09-04T13:58:15.750Z,89.10
2018-09-04T14:00:43.240Z,88.30
2018-09-04T14:03:11.656Z,85.80
2018-09-04T14:05:39.176Z,84.80
2018-09-04T14:08:06.688Z,83.30
2018-09-04T14:10:34.218Z,81.10
2018-09-04T14:13:01.898Z,80.60
2018-09-04T14:15:29.485Z,80.00
2018-09-04T14:17:57.030Z,78.50
2018-09-04T14:20:24.642Z,77.70
2018-09-04T14:22:52.142Z,76.30
2018-09-04T14:25:19.722Z,74.90
2018-09-04T14:27:47.222Z,75.60
2018-09-04T14:30:16.143Z,74.30
2018-09-04T14:32:42.385Z,73.70
2018-09-04T14:35:09.974Z,71.90
2018-09-04T14:37:37.524Z,71.60
2018-09-04T14:40:05.080Z,71.60
2018-09-04T14:42:32.676Z,70.20
2018-09-04T14:45:00.246Z,68.70
2018-09-04T14:47:27.736Z,67.60
2018-09-04T14:49:55.424Z,66.60
2018-09-04T14:52:23.050Z,69.30
2018-09-04T14:54:50.576Z,68.10
2018-09-04T14:57:18.178Z,68.80
2018-09-04T14:59:45.779Z,68.80
2018-09-04T15:02:13.622Z,69.10
2018-09-04T15:04:41.277Z,68.00
2018-09-04T15:07:08.893Z,69.10
2018-09-04T15:09:36.442Z,68.50
2018-09-04T15:12:04.099Z,67.50
2018-09-04T15:14:31.595Z,66.90
2018-09-04T15:17:00.015Z,66.40
2018-09-04T15:19:27.805Z,66.30
2018-09-04T15:21:55.369Z,67.60
2018-09-04T15:24:22.953Z,68.30
2018-09-04T15:26:50.526Z,68.30
2018-09-04T15:29:18.047Z,68.00
2018-09-04T15:31:45.775Z,66.60
2018-09-04T15:34:13.373Z,66.00
2018-09-04T15:36:40.953Z,65.50
2018-09-04T15:39:08.593Z,65.10
2018-09-04T15:41:36.518Z,65.00
2018-09-04T15:44:04.085Z,65.90
2018-09-04T15:46:31.937Z,66.20
2018-09-04T15:49:05.085Z,67.00
2018-09-04T15:51:32.874Z,67.00
2018-09-04T15:54:00.665Z,67.90
2018-09-04T15:56:28.205Z,66.50
2018-09-04T15:58:55.772Z,66.50
2018-09-04T16:01:23.311Z,68.00
2018-09-04T16:03:50.894Z,68.50
2018-09-04T16:06:18.512Z,70.70
2018-09-04T16:08:46.095Z,71.20
2018-09-04T16:11:13.692Z,71.50
2018-09-04T16:13:41.242Z,70.50
2018-09-04T16:16:08.813Z,70.00
2018-09-04T16:18:37.374Z,69.10
2018-09-04T16:21:05.126Z,68.80
2018-09-04T16:23:32.692Z,68.90
2018-09-04T16:26:00.300Z,69.10
2018-09-04T16:28:28.016Z,69.10
2018-09-04T16:30:55.550Z,70.00
2018-09-04T16:33:23.163Z,69.30
2018-09-04T16:35:50.672Z,69.20
2018-09-04T16:38:18.292Z,69.60
2018-09-04T16:40:45.876Z,69.90
2018-09-04T16:43:13.390Z,69.60
2018-09-04T16:45:40.929Z,71.50
2018-09-04T16:48:08.490Z,70.10
2018-09-04T16:50:36.177Z,71.00
2018-09-04T16:53:03.709Z,71.90
2018-09-04T16:55:31.269Z,73.20
2018-09-04T16:57:58.953Z,74.40
2018-09-04T17:00:26.464Z,75.80
2018-09-04T17:02:54.007Z,76.10
2018-09-04T17:05:21.551Z,76.70
2018-09-04T17:07:49.201Z,77.60
2018-09-04T17:10:16.866Z,76.80
2018-09-04T17:12:44.515Z,77.00
2018-09-04T17:15:12.065Z,77.70
2018-09-04T17:17:39.777Z,78.60
2018-09-04T17:20:07.333Z,80.70
2018-09-04T17:22:34.841Z,81.70
2018-09-04T17:25:02.471Z,83.80
2018-09-04T17:27:30.012Z,83.50
2018-09-04T17:29:57.566Z,85.00
2018-09-04T17:32:25.139Z,85.80
2018-09-04T17:34:52.645Z,86.50
2018-09-04T17:37:20.467Z,88.00
2018-09-04T17:39:48.001Z,88.60
2018-09-04T17:42:15.597Z,89.90
2018-09-04T17:44:43.090Z,90.40
2018-09-04T17:47:10.649Z,90.90
2018-09-04T17:49:38.155Z,91.60
2018-09-04T17:52:05.827Z,92.40
2018-09-04T17:54:33.395Z,92.90
2018-09-04T17:57:00.891Z,93.70
2018-09-04T17:59:28.435Z,94.20
2018-09-04T18:01:55.937Z,95.20
2018-09-04T18:04:23.465Z,95.50
2018-09-04T18:06:51.272Z,96.10
2018-09-04T18:09:18.915Z,96.80
2018-09-04T18:11:46.473Z,97.60
2018-09-04T18:14:14.084Z,98.10
2018-09-04T18:16:41.746Z,98.90
2018-09-04T18:19:09.321Z,99.10
2018-09-04T18:21:36.886Z,99.20
2018-09-04T18:24:04.561Z,99.50
2018-09-04T18:26:32.189Z,99.90
2018-09-04T18:28:59.686Z,99.90
2018-09-04T18:31:27.204Z,99.90
2018-09-04T18:33:54.693Z,99.90
2018-09-04T18:36:22.304Z,99.90
2018-09-04T18:38:49.925Z,99.90
2018-09-04T18:41:17.460Z,99.90
2018-09-04T18:43:45.039Z,99.90
2018-09-04T18:46:12.909Z,99.90
2018-09-04T18:48:40.491Z,99.90
2018-09-04T18:51:07.960Z,99.90
2018-09-04T18:53:35.629Z,99.90
2018-09-04T18:56:03.169Z,99.90
2018-09-04T18:58:30.724Z,99.90
2018-09-04T19:00:58.305Z,99.90
2018-09-04T19:03:25.848Z,99.90
2018-09-04T19:05:53.355Z,99.90
2018-09-04T19:08:21.024Z,99.90
2018-09-04T19:10:48.630Z,99.90
2018-09-04T19:13:16.175Z,99.90
2018-09-04T19:15:43.770Z,99.90
2018-09-04T19:18:11.365Z,99.90
2018-09-04T19:20:38.947Z,99.90
2018-09-04T19:23:06.473Z,99.90
2018-09-04T19:25:33.989Z,99.90
2018-09-04T19:28:01.475Z,99.90
2018-09-04T19:30:29.009Z,99.90
2018-09-04T19:32:56.608Z,99.90
2018-09-04T19:35:24.128Z,99.90
2018-09-04T19:37:51.685Z,99.90
2018-09-04T19:40:19.992Z,99.90
2018-09-04T19:42:48.263Z,99.90
2018-09-04T19:45:16.833Z,99.90
2018-09-04T19:47:44.736Z,99.90
2018-09-04T19:50:13.083Z,99.90
2018-09-04T19:52:40.654Z,99.90
2018-09-04T19:55:10.126Z,99.90
2018-09-04T19:57:37.989Z,99.90
2018-09-04T20:00:07.055Z,99.90
2018-09-04T20:02:35.554Z,99.90
2018-09-04T20:05:03.454Z,99.90
2018-09-04T20:07:31.052Z,99.90
2018-09-04T20:09:58.975Z,99.90
2018-09-04T20:12:26.634Z,99.90
2018-09-04T20:14:54.338Z,99.90
2018-09-04T20:17:21.887Z,99.90
2018-09-04T20:19:49.500Z,99.90
2018-09-04T20:22:17.075Z,99.90
2018-09-04T20:24:45.150Z,99.90
2018-09-04T20:27:13.582Z,99.90
2018-09-04T20:29:41.504Z,99.90
2018-09-04T20:32:09.280Z,99.90
2018-09-04T20:34:37.188Z,99.90
2018-09-04T20:37:05.717Z,99.90
2018-09-04T20:39:33.596Z,99.90
2018-09-04T20:42:01.520Z,99.90
2018-09-04T20:44:29.350Z,99.90
2018-09-04T20:46:57.186Z,99.90
2018-09-04T20:49:25.060Z,99.90
2018-09-04T20:51:52.732Z,99.90
2018-09-04T20:54:20.421Z,99.90
2018-09-04T20:57:04.646Z,99.90
2018-09-04T20:59:43.570Z,99.90
2018-09-04T21:02:22.634Z,99.90
2018-09-04T21:05:01.938Z,99.90
2018-09-04T21:07:44.718Z,99.90
2018-09-04T21:10:12.666Z,99.90
2018-09-04T21:12:40.174Z,99.90
2018-09-04T21:15:07.725Z,99.90
2018-09-04T21:17:35.248Z,99.90
2018-09-04T21:20:02.838Z,99.90
2018-09-04T21:22:30.478Z,99.90
2018-09-04T21:24:57.976Z,99.90
2018-09-04T21:27:25.550Z,99.90
2018-09-04T21:29:53.074Z,99.90
2018-09-04T21:32:21.033Z,99.90
2018-09-04T21:34:48.562Z,99.90
2018-09-04T21:37:16.068Z,99.90
2018-09-04T21:39:43.612Z,99.90
2018-09-04T21:42:11.161Z,99.90
2018-09-04T21:44:38.738Z,99.90
2018-09-04T21:47:06.274Z,99.90
2018-09-04T21:49:33.898Z,99.90
2018-09-04T21:52:01.472Z,99.90
2018-09-04T21:54:29.042Z,99.90
2018-09-04T21:56:56.570Z,99.90
2018-09-04T21:59:24.216Z,99.90
2018-09-04T22:01:51.728Z,99.90
2018-09-04T22:04:19.301Z,99.90
2018-09-04T22:06:46.880Z,99.90
2018-09-04T22:09:14.401Z,99.90
2018-09-04T22:11:41.990Z,99.90
2018-09-04T22:14:09.568Z,99.90
2018-09-04T22:16:40.519Z,99.90
2018-09-04T22:19:08.064Z,99.90
2018-09-04T22:21:35.661Z,99.90
2018-09-04T22:24:03.194Z,99.90
2018-09-04T22:26:30.714Z,99.90
2018-09-04T22:28:58.287Z,99.90
